Time;durP1;ratioP1;P1;durP2;ratioP2;P2;SDS_P1;SDS_P2;PMS_P1;PMS_P2;Temp;Humidity;BMP_temperature;BMP_pressure;BME280_temperature;BME280_humidity;BME280_pressure;Samples;Min_cycle;Max_cycle;Signal;HPM_P1;HPM_P2
2023/11/07 00:01:35;;;;;;;1.60;0.60;;;;;;;;;;5031702;28;20049;-59
2023/11/07 00:04:02;;;;;;;2.75;0.80;;;;;;;;;;5031405;28;20137;-59
2023/11/07 00:06:29;;;;;;;1.75;0.60;;;;;;;;;;5031029;28;20052;-59
2023/11/07 00:08:55;;;;;;;1.63;0.73;;;;;;;;;;5031482;28;20128;-59
2023/11/07 00:11:22;;;;;;;1.20;0.70;;;;;;;;;;5030707;28;20481;-58
2023/11/07 00:13:50;;;;;;;1.33;0.60;;;;;;;;;;5032056;28;20058;-59
2023/11/07 00:16:17;;;;;;;1.25;1.05;;;;;;;;;;5031853;28;20444;-59
2023/11/07 00:18:44;;;;;;;1.88;0.70;;;;;;;;;;5033248;28;20060;-58
2023/11/07 00:21:11;;;;;;;1.85;0.98;;;;;;;;;;5032782;28;20407;-59
2023/11/07 00:23:38;;;;;;;2.15;0.60;;;;;;;;;;5032863;28;20080;-59
2023/11/07 00:26:05;;;;;;;2.13;1.00;;;;;;;;;;5033157;28;20149;-60
2023/11/07 00:28:32;;;;;;;2.45;0.82;;;;;;;;;;5033235;28;20471;-60
2023/11/07 00:31:00;;;;;;;2.63;0.68;;;;;;;;;;5033927;28;20137;-60
2023/11/07 00:33:26;;;;;;;1.50;0.70;;;;;;;;;;5032682;28;20057;-60
2023/11/07 00:35:53;;;;;;;2.85;0.70;;;;;;;;;;5032606;28;20152;-58
2023/11/07 00:38:19;;;;;;;2.22;0.90;;;;;;;;;;5032379;28;20413;-58
2023/11/07 00:40:47;;;;;;;1.45;0.60;;;;;;;;;;5032273;28;20041;-59
2023/11/07 00:43:14;;;;;;;1.08;0.50;;;;;;;;;;5032467;28;20076;-59
2023/11/07 00:45:40;;;;;;;1.92;0.55;;;;;;;;;;5032927;28;20091;-58
2023/11/07 00:48:08;;;;;;;2.13;0.73;;;;;;;;;;5032644;28;20401;-59
2023/11/07 00:50:36;;;;;;;1.50;0.68;;;;;;;;;;5032757;28;20061;-57
2023/11/07 00:53:03;;;;;;;2.45;0.60;;;;;;;;;;5032586;28;20091;-59
2023/11/07 00:55:30;;;;;;;2.85;0.70;;;;;;;;;;5032164;28;20052;-58
2023/11/07 00:57:57;;;;;;;2.08;0.60;;;;;;;;;;5032785;28;20409;-59
2023/11/07 01:00:24;;;;;;;2.53;0.70;;;;;;;;;;5032537;28;20093;-57
2023/11/07 01:02:50;;;;;;;1.08;0.70;;;;;;;;;;5032361;28;20132;-60
2023/11/07 01:05:19;;;;;;;2.80;0.75;;;;;;;;;;5032417;28;20077;-60
2023/11/07 01:07:46;;;;;;;0.70;0.40;;;;;;;;;;5032550;28;20049;-59
2023/11/07 01:10:13;;;;;;;1.65;0.70;;;;;;;;;;5032148;28;20049;-60
2023/11/07 01:12:40;;;;;;;1.90;0.50;;;;;;;;;;5032120;28;20114;-59
2023/11/07 01:15:07;;;;;;;1.77;0.70;;;;;;;;;;5031867;28;20121;-59
2023/11/07 01:17:34;;;;;;;1.13;0.50;;;;;;;;;;5032131;28;20140;-60
2023/11/07 01:20:00;;;;;;;2.97;0.80;;;;;;;;;;5032031;28;20136;-59
2023/11/07 01:22:28;;;;;;;1.55;0.63;;;;;;;;;;5031856;28;20133;-60
2023/11/07 01:24:55;;;;;;;2.40;0.68;;;;;;;;;;5031975;28;20487;-60
2023/11/07 01:27:22;;;;;;;1.92;0.65;;;;;;;;;;5031908;28;20479;-60
2023/11/07 01:29:48;;;;;;;1.63;0.73;;;;;;;;;;5031850;28;20356;-59
2023/11/07 01:32:15;;;;;;;3.40;0.70;;;;;;;;;;5030709;28;20128;-60
2023/11/07 01:34:41;;;;;;;2.47;0.82;;;;;;;;;;5032006;28;20144;-58
2023/11/07 01:37:08;;;;;;;2.30;0.80;;;;;;;;;;5031718;28;20153;-60
2023/11/07 01:39:36;;;;;;;2.00;0.80;;;;;;;;;;5031493;28;20129;-59
2023/11/07 01:42:03;;;;;;;2.92;0.60;;;;;;;;;;5027068;28;20438;-60
2023/11/07 01:44:30;;;;;;;2.75;0.60;;;;;;;;;;5031438;28;20049;-59
2023/11/07 01:46:58;;;;;;;1.48;0.45;;;;;;;;;;5031721;28;20050;-59
2023/11/07 01:49:25;;;;;;;2.35;0.50;;;;;;;;;;5031937;28;20045;-59
2023/11/07 01:51:55;;;;;;;0.77;0.50;;;;;;;;;;5032005;28;20503;-58
2023/11/07 01:54:25;;;;;;;1.10;0.40;;;;;;;;;;5031548;28;20135;-59
2023/11/07 01:56:54;;;;;;;1.40;0.50;;;;;;;;;;5031269;28;20132;-59
2023/11/07 01:59:20;;;;;;;1.45;0.40;;;;;;;;;;5031499;28;20133;-58
2023/11/07 02:01:51;;;;;;;0.98;0.50;;;;;;;;;;5031808;28;20087;-59
2023/11/07 02:04:18;;;;;;;0.65;0.40;;;;;;;;;;5031474;28;20056;-58
2023/11/07 02:06:45;;;;;;;0.70;0.63;;;;;;;;;;5031632;28;20508;-59
2023/11/07 02:09:11;;;;;;;2.50;0.70;;;;;;;;;;5031464;28;20081;-58
2023/11/07 02:11:38;;;;;;;1.33;0.50;;;;;;;;;;5031557;28;20088;-58
2023/11/07 02:14:07;;;;;;;1.58;0.63;;;;;;;;;;5031356;28;20106;-59
2023/11/07 02:16:34;;;;;;;2.20;0.60;;;;;;;;;;5031458;28;20049;-58
2023/11/07 02:19:00;;;;;;;1.95;0.60;;;;;;;;;;5031445;28;20472;-57
2023/11/07 02:21:29;;;;;;;1.38;0.40;;;;;;;;;;5031302;28;20560;-59
2023/11/07 02:23:57;;;;;;;1.75;0.40;;;;;;;;;;5031401;28;20041;-59
2023/11/07 02:26:24;;;;;;;0.95;0.30;;;;;;;;;;5031085;28;20484;-58
2023/11/07 02:28:50;;;;;;;0.90;0.40;;;;;;;;;;5031802;28;20141;-59
2023/11/07 02:31:19;;;;;;;0.60;0.30;;;;;;;;;;5031568;28;20053;-60
2023/11/07 02:33:45;;;;;;;0.75;0.40;;;;;;;;;;5031567;28;20604;-59
2023/11/07 02:36:12;;;;;;;0.45;0.30;;;;;;;;;;5030179;28;20045;-59
2023/11/07 02:38:39;;;;;;;0.98;0.30;;;;;;;;;;5024046;28;20060;-56
2023/11/07 02:41:07;;;;;;;0.88;0.35;;;;;;;;;;5030873;28;20485;-60
2023/11/07 02:43:33;;;;;;;1.42;0.40;;;;;;;;;;5031102;28;20045;-60
2023/11/07 02:46:00;;;;;;;0.47;0.30;;;;;;;;;;5031181;28;20248;-60
2023/11/07 02:48:27;;;;;;;1.27;0.45;;;;;;;;;;5031396;28;20492;-60
2023/11/07 02:50:55;;;;;;;1.08;0.50;;;;;;;;;;5031093;28;20124;-59
2023/11/07 02:53:22;;;;;;;2.80;0.70;;;;;;;;;;5032149;28;20057;-59
2023/11/07 02:55:49;;;;;;;4.55;1.23;;;;;;;;;;5034619;28;20056;-58
2023/11/07 02:58:17;;;;;;;4.30;0.90;;;;;;;;;;5034916;28;20045;-60
2023/11/07 03:00:44;;;;;;;1.42;0.68;;;;;;;;;;5034711;28;20099;-58
2023/11/07 03:03:11;;;;;;;0.50;0.50;;;;;;;;;;5034591;28;20050;-59
2023/11/07 03:05:38;;;;;;;1.67;0.65;;;;;;;;;;5034527;28;20104;-59
2023/11/07 03:08:06;;;;;;;2.22;0.70;;;;;;;;;;5034557;28;20600;-60
2023/11/07 03:10:33;;;;;;;1.83;0.77;;;;;;;;;;5035905;28;20061;-60
2023/11/07 03:13:00;;;;;;;0.98;0.57;;;;;;;;;;5035736;28;20051;-57
2023/11/07 03:15:28;;;;;;;1.45;0.70;;;;;;;;;;5035727;28;21241;-59
2023/11/07 03:17:55;;;;;;;1.63;0.70;;;;;;;;;;5034438;28;20511;-59
2023/11/07 03:20:21;;;;;;;1.67;0.73;;;;;;;;;;5034089;28;20137;-60
2023/11/07 03:22:48;;;;;;;1.92;0.50;;;;;;;;;;5034385;28;20065;-60
2023/11/07 03:25:16;;;;;;;0.95;0.50;;;;;;;;;;5033952;28;20125;-60
2023/11/07 03:27:43;;;;;;;2.15;0.60;;;;;;;;;;5034415;28;20060;-60
2023/11/07 03:30:10;;;;;;;4.05;0.88;;;;;;;;;;5034196;28;20500;-59
2023/11/07 03:32:38;;;;;;;1.90;0.75;;;;;;;;;;5034112;28;20045;-59
2023/11/07 03:35:05;;;;;;;0.82;0.55;;;;;;;;;;5033700;28;20050;-60
2023/11/07 03:37:32;;;;;;;1.00;0.50;;;;;;;;;;5034250;28;20052;-55
2023/11/07 03:39:59;;;;;;;2.13;0.70;;;;;;;;;;5034184;28;20457;-60
2023/11/07 03:42:25;;;;;;;2.10;0.70;;;;;;;;;;5033958;28;20128;-59
2023/11/07 03:44:52;;;;;;;1.35;0.80;;;;;;;;;;5034050;28;20128;-60
2023/11/07 03:47:19;;;;;;;1.70;0.52;;;;;;;;;;5034160;28;20088;-60
2023/11/07 03:49:46;;;;;;;1.92;0.80;;;;;;;;;;5033839;28;20124;-59
2023/11/07 03:52:14;;;;;;;1.20;0.60;;;;;;;;;;5033796;28;20132;-59
2023/11/07 03:54:40;;;;;;;2.13;0.90;;;;;;;;;;5033545;28;20060;-60
2023/11/07 03:57:07;;;;;;;2.70;1.00;;;;;;;;;;5033485;28;20136;-59
2023/11/07 03:59:33;;;;;;;3.58;0.93;;;;;;;;;;5033794;28;20072;-59
2023/11/07 04:02:00;;;;;;;2.80;1.00;;;;;;;;;;5033370;28;20131;-59
2023/11/07 04:04:27;;;;;;;1.60;0.93;;;;;;;;;;5033451;28;20049;-60
2023/11/07 04:06:55;;;;;;;1.52;0.65;;;;;;;;;;5032693;28;20067;-60
2023/11/07 04:09:22;;;;;;;3.55;1.00;;;;;;;;;;5033852;28;20166;-59
2023/11/07 04:11:49;;;;;;;2.47;0.80;;;;;;;;;;5033506;28;20145;-59
2023/11/07 04:14:17;;;;;;;1.63;0.63;;;;;;;;;;5033254;28;20077;-58
2023/11/07 04:16:44;;;;;;;1.33;0.73;;;;;;;;;;5033396;28;20057;-55
2023/11/07 04:19:11;;;;;;;2.97;0.80;;;;;;;;;;5033606;28;20408;-59
2023/11/07 04:21:38;;;;;;;1.90;0.80;;;;;;;;;;5033533;28;20045;-59
2023/11/07 04:24:07;;;;;;;2.75;1.02;;;;;;;;;;5033324;28;20048;-59
2023/11/07 04:26:34;;;;;;;3.58;0.90;;;;;;;;;;5025297;28;20111;-59
2023/11/07 04:29:00;;;;;;;2.17;1.00;;;;;;;;;;5032974;28;20311;-60
2023/11/07 04:31:28;;;;;;;2.05;1.00;;;;;;;;;;5033414;28;20515;-62
2023/11/07 04:33:55;;;;;;;3.50;0.90;;;;;;;;;;5033137;28;20551;-57
2023/11/07 04:36:22;;;;;;;6.50;1.17;;;;;;;;;;5032106;28;20057;-59
2023/11/07 04:38:49;;;;;;;2.10;1.10;;;;;;;;;;5032965;28;20107;-59
2023/11/07 04:41:17;;;;;;;2.75;0.98;;;;;;;;;;5033046;28;20057;-58
2023/11/07 04:43:44;;;;;;;3.35;1.13;;;;;;;;;;5032660;28;20132;-60
2023/11/07 04:46:12;;;;;;;2.50;0.90;;;;;;;;;;5032707;28;20508;-59
2023/11/07 04:48:39;;;;;;;2.25;1.00;;;;;;;;;;5032553;28;20060;-61
2023/11/07 04:51:06;;;;;;;3.63;1.17;;;;;;;;;;5032847;28;20050;-59
2023/11/07 04:53:33;;;;;;;3.13;0.93;;;;;;;;;;5032515;28;20051;-59
2023/11/07 04:56:00;;;;;;;1.60;0.70;;;;;;;;;;5032405;28;20045;-60
2023/11/07 04:58:28;;;;;;;4.18;1.10;;;;;;;;;;5032745;28;20136;-59
2023/11/07 05:00:55;;;;;;;2.45;0.98;;;;;;;;;;5032713;28;20153;-60
2023/11/07 05:03:22;;;;;;;2.90;1.00;;;;;;;;;;5032462;28;20128;-60
2023/11/07 05:05:49;;;;;;;4.07;1.23;;;;;;;;;;5032337;28;20049;-59
2023/11/07 05:08:17;;;;;;;3.97;1.20;;;;;;;;;;5032310;28;20076;-60
2023/11/07 05:10:44;;;;;;;2.50;0.90;;;;;;;;;;5031992;28;20061;-60
2023/11/07 05:13:11;;;;;;;2.72;1.00;;;;;;;;;;5032119;28;20060;-60
2023/11/07 05:15:39;;;;;;;1.58;0.90;;;;;;;;;;5031472;28;20080;-58
2023/11/07 05:18:05;;;;;;;2.08;1.10;;;;;;;;;;5032258;28;20497;-60
2023/11/07 05:20:32;;;;;;;1.90;0.85;;;;;;;;;;5032133;28;20136;-60
2023/11/07 05:22:59;;;;;;;4.40;1.00;;;;;;;;;;5032296;28;20088;-60
2023/11/07 05:25:26;;;;;;;2.17;1.38;;;;;;;;;;5031638;28;20402;-58
2023/11/07 05:27:53;;;;;;;2.65;0.95;;;;;;;;;;5032352;28;20532;-60
2023/11/07 05:30:19;;;;;;;2.15;0.80;;;;;;;;;;5031918;28;20049;-60
2023/11/07 05:32:48;;;;;;;2.58;0.88;;;;;;;;;;5031518;28;20045;-59
2023/11/07 05:35:15;;;;;;;3.35;1.20;;;;;;;;;;5031747;28;20081;-59
2023/11/07 05:37:42;;;;;;;2.13;1.17;;;;;;;;;;5031621;28;20045;-59
2023/11/07 05:40:13;;;;;;;2.67;0.90;;;;;;;;;;5032191;28;20053;-59
2023/11/07 05:42:40;;;;;;;3.45;1.48;;;;;;;;;;5031699;28;20045;-59
2023/11/07 05:45:07;;;;;;;3.00;0.88;;;;;;;;;;5031855;28;20047;-59
2023/11/07 05:47:36;;;;;;;3.03;1.10;;;;;;;;;;5031743;28;20562;-60
2023/11/07 05:50:05;;;;;;;2.25;1.05;;;;;;;;;;5031832;28;20045;-59
2023/11/07 05:52:32;;;;;;;2.55;0.98;;;;;;;;;;5031720;28;20290;-59
2023/11/07 05:55:00;;;;;;;1.52;0.80;;;;;;;;;;5031673;28;20186;-60
2023/11/07 05:57:27;;;;;;;4.82;0.90;;;;;;;;;;5031374;28;20045;-58
2023/11/07 05:59:53;;;;;;;2.33;1.73;;;;;;;;;;5031511;28;20103;-59
2023/11/07 06:02:20;;;;;;;2.38;0.90;;;;;;;;;;5031604;28;20419;-60
2023/11/07 06:04:47;;;;;;;3.38;1.52;;;;;;;;;;5031672;28;20049;-59
2023/11/07 06:07:15;;;;;;;3.78;1.60;;;;;;;;;;5031542;28;20053;-60
2023/11/07 06:09:42;;;;;;;4.10;1.60;;;;;;;;;;5032192;28;20093;-58
2023/11/07 06:12:09;;;;;;;2.72;1.30;;;;;;;;;;5031388;28;20072;-59
2023/11/07 06:14:36;;;;;;;4.47;1.70;;;;;;;;;;5031608;28;20077;-60
2023/11/07 06:17:03;;;;;;;3.67;1.42;;;;;;;;;;5031377;28;20045;-60
2023/11/07 06:19:30;;;;;;;3.83;1.52;;;;;;;;;;5031367;28;20125;-60
2023/11/07 06:21:57;;;;;;;4.35;1.85;;;;;;;;;;5031606;28;20054;-59
2023/11/07 06:24:25;;;;;;;5.13;1.77;;;;;;;;;;5031544;28;20416;-59
2023/11/07 06:26:51;;;;;;;4.70;2.05;;;;;;;;;;5032344;28;20465;-60
2023/11/07 06:29:18;;;;;;;4.32;2.17;;;;;;;;;;5035563;28;20125;-60
2023/11/07 06:31:45;;;;;;;6.72;2.08;;;;;;;;;;5035423;28;20419;-59
2023/11/07 06:34:12;;;;;;;6.45;1.50;;;;;;;;;;5035128;28;20053;-60
2023/11/07 06:36:38;;;;;;;4.88;1.58;;;;;;;;;;5035512;28;20119;-60
2023/11/07 06:39:06;;;;;;;6.00;1.92;;;;;;;;;;5035182;28;20132;-59
2023/11/07 06:41:34;;;;;;;4.10;1.73;;;;;;;;;;5035194;28;20049;-61
2023/11/07 06:44:00;;;;;;;4.05;1.85;;;;;;;;;;5035147;28;20053;-59
2023/11/07 06:46:27;;;;;;;3.92;1.88;;;;;;;;;;5035059;28;20582;-60
2023/11/07 06:48:54;;;;;;;6.53;2.13;;;;;;;;;;5034942;28;20063;-60
2023/11/07 06:51:21;;;;;;;6.53;2.60;;;;;;;;;;5035189;28;20489;-60
2023/11/07 06:53:48;;;;;;;6.63;2.05;;;;;;;;;;5034945;28;20128;-58
2023/11/07 06:56:14;;;;;;;4.50;1.63;;;;;;;;;;5034938;28;20132;-60
2023/11/07 06:58:44;;;;;;;4.25;1.80;;;;;;;;;;5034808;28;20136;-60
2023/11/07 07:01:13;;;;;;;4.45;1.50;;;;;;;;;;5035354;28;20041;-60
2023/11/07 07:03:40;;;;;;;4.47;1.40;;;;;;;;;;5034531;28;20111;-60
2023/11/07 07:06:07;;;;;;;4.55;1.65;;;;;;;;;;5034620;28;20521;-60
2023/11/07 07:08:34;;;;;;;6.40;1.98;;;;;;;;;;5034922;28;20054;-60
2023/11/07 07:11:01;;;;;;;5.57;2.15;;;;;;;;;;5034754;28;20046;-60
2023/11/07 07:13:27;;;;;;;5.63;2.22;;;;;;;;;;5034466;28;20061;-60
2023/11/07 07:15:56;;;;;;;6.53;2.13;;;;;;;;;;5034475;28;20064;-60
2023/11/07 07:18:25;;;;;;;6.28;1.85;;;;;;;;;;5034668;28;20076;-60
2023/11/07 07:20:53;;;;;;;4.85;1.85;;;;;;;;;;5034614;28;20077;-59
2023/11/07 07:23:24;;;;;;;5.60;2.53;;;;;;;;;;5034776;28;20476;-57
2023/11/07 07:25:51;;;;;;;5.47;1.60;;;;;;;;;;5034768;28;20041;-60
2023/11/07 07:28:19;;;;;;;3.05;1.73;;;;;;;;;;5034520;28;20085;-58
2023/11/07 07:30:47;;;;;;;4.70;1.65;;;;;;;;;;5035419;28;20506;-60
2023/11/07 07:33:18;;;;;;;4.07;1.98;;;;;;;;;;5034786;28;20057;-58
2023/11/07 07:35:46;;;;;;;5.35;2.20;;;;;;;;;;5034825;28;20049;-60
2023/11/07 07:38:13;;;;;;;4.53;1.95;;;;;;;;;;5034083;28;20140;-60
2023/11/07 07:40:41;;;;;;;4.07;1.63;;;;;;;;;;5034194;28;20545;-60
2023/11/07 07:43:10;;;;;;;4.28;1.85;;;;;;;;;;5032965;28;20077;-60
2023/11/07 07:45:38;;;;;;;6.27;1.83;;;;;;;;;;5032737;28;20052;-58
2023/11/07 07:48:06;;;;;;;5.20;2.53;;;;;;;;;;5034110;28;20045;-60
2023/11/07 07:50:34;;;;;;;6.22;1.80;;;;;;;;;;5033634;28;20463;-59
2023/11/07 07:53:02;;;;;;;6.78;2.00;;;;;;;;;;5031301;28;20080;-59
2023/11/07 07:55:29;;;;;;;2.92;1.63;;;;;;;;;;5033939;28;20140;-59
2023/11/07 07:58:00;;;;;;;4.25;1.48;;;;;;;;;;5033797;28;20046;-60
2023/11/07 08:00:30;;;;;;;4.47;1.42;;;;;;;;;;5033804;28;20053;-59
2023/11/07 08:02:58;;;;;;;5.13;1.60;;;;;;;;;;5033989;28;20046;-61
2023/11/07 08:05:27;;;;;;;3.92;1.55;;;;;;;;;;5034279;28;20084;-59
2023/11/07 08:07:55;;;;;;;4.43;1.85;;;;;;;;;;5034312;28;20057;-66
2023/11/07 08:10:22;;;;;;;5.25;1.67;;;;;;;;;;5034284;28;20141;-59
2023/11/07 08:12:50;;;;;;;4.15;1.73;;;;;;;;;;5033826;28;20088;-56
2023/11/07 08:15:17;;;;;;;2.78;1.40;;;;;;;;;;5033550;28;20045;-62
2023/11/07 08:17:45;;;;;;;5.10;1.75;;;;;;;;;;5033576;28;20064;-60
2023/11/07 08:20:15;;;;;;;4.28;1.90;;;;;;;;;;5033594;28;20103;-63
2023/11/07 08:22:42;;;;;;;3.72;1.38;;;;;;;;;;5033650;28;20057;-58
2023/11/07 08:25:11;;;;;;;4.25;1.58;;;;;;;;;;5033405;28;20432;-57
2023/11/07 08:27:39;;;;;;;4.53;1.65;;;;;;;;;;5033668;28;20053;-58
2023/11/07 08:30:10;;;;;;;3.30;1.60;;;;;;;;;;5033358;28;20049;-58
2023/11/07 08:32:36;;;;;;;;;;;;;;;;;;5033573;28;20453;-56
2023/11/07 08:35:06;;;;;;;3.78;1.55;;;;;;;;;;5033067;28;20015;-56
2023/11/07 08:37:33;;;;;;;2.65;1.45;;;;;;;;;;5033352;28;20046;-67
2023/11/07 08:40:03;;;;;;;3.67;1.50;;;;;;;;;;5033266;28;20046;-69
2023/11/07 08:42:31;;;;;;;2.17;1.27;;;;;;;;;;5030849;28;20056;-57
2023/11/07 08:44:57;;;;;;;4.75;1.45;;;;;;;;;;5030697;28;20045;-57
2023/11/07 08:47:24;;;;;;;5.28;2.10;;;;;;;;;;5030073;28;20479;-64
2023/11/07 08:49:55;;;;;;;4.70;2.45;;;;;;;;;;5031521;28;20532;-58
2023/11/07 08:52:21;;;;;;;5.32;2.38;;;;;;;;;;5030369;28;20057;-56
2023/11/07 08:54:48;;;;;;;5.30;2.30;;;;;;;;;;5030629;28;20696;-55
2023/11/07 08:57:15;;;;;;;4.85;2.00;;;;;;;;;;5030462;28;20054;-58
2023/11/07 08:59:44;;;;;;;7.43;3.10;;;;;;;;;;5030887;28;20124;-57
2023/11/07 09:02:11;;;;;;;4.15;2.10;;;;;;;;;;5031166;28;20045;-59
2023/11/07 09:04:38;;;;;;;3.92;1.80;;;;;;;;;;5031143;28;20052;-58
2023/11/07 09:07:06;;;;;;;4.05;2.00;;;;;;;;;;5030833;28;20315;-59
2023/11/07 09:09:34;;;;;;;3.80;1.65;;;;;;;;;;5033549;28;20047;-57
2023/11/07 09:12:01;;;;;;;4.03;1.85;;;;;;;;;;5031205;28;20037;-56
2023/11/07 09:14:27;;;;;;;3.67;2.00;;;;;;;;;;5030319;28;20095;-59
2023/11/07 09:16:56;;;;;;;5.60;1.80;;;;;;;;;;5030143;28;20356;-57
2023/11/07 09:19:22;;;;;;;4.50;1.67;;;;;;;;;;5031114;28;20554;-55
2023/11/07 09:21:49;;;;;;;3.78;1.80;;;;;;;;;;5030288;28;20076;-59
2023/11/07 09:24:16;;;;;;;5.00;2.05;;;;;;;;;;5035722;28;20049;-58
2023/11/07 09:26:42;;;;;;;4.63;1.83;;;;;;;;;;5030307;28;20530;-57
2023/11/07 09:29:10;;;;;;;5.03;2.05;;;;;;;;;;5026798;28;20532;-56
2023/11/07 09:31:37;;;;;;;3.90;1.70;;;;;;;;;;5026387;28;20105;-56
2023/11/07 09:34:08;;;;;;;5.07;1.88;;;;;;;;;;5030440;28;20136;-56
2023/11/07 09:36:36;;;;;;;4.55;1.88;;;;;;;;;;5026158;28;20220;-58
2023/11/07 09:39:05;;;;;;;4.15;2.10;;;;;;;;;;5031353;28;20049;-58
2023/11/07 09:41:32;;;;;;;3.97;1.35;;;;;;;;;;5030213;28;20156;-59
2023/11/07 09:44:03;;;;;;;3.20;1.38;;;;;;;;;;5030103;28;20053;-56
2023/11/07 09:46:34;;;;;;;5.00;1.98;;;;;;;;;;5030827;28;20136;-58
2023/11/07 09:49:00;;;;;;;;;;;;;;;;;;5030718;28;20081;-59
2023/11/07 09:51:29;;;;;;;4.00;2.03;;;;;;;;;;5030387;28;19921;-59
2023/11/07 09:53:58;;;;;;;3.05;1.58;;;;;;;;;;5030113;28;20049;-58
2023/11/07 09:56:29;;;;;;;4.38;1.70;;;;;;;;;;5029997;28;20045;-57
2023/11/07 09:59:03;;;;;;;3.92;1.45;;;;;;;;;;5030380;28;20136;-57
2023/11/07 10:01:29;;;;;;;4.53;2.00;;;;;;;;;;5029886;28;20064;-56
2023/11/07 10:03:58;;;;;;;3.50;1.40;;;;;;;;;;5029708;28;20527;-55
2023/11/07 10:06:25;;;;;;;9.35;2.28;;;;;;;;;;5030571;28;20057;-58
2023/11/07 10:08:55;;;;;;;4.65;1.42;;;;;;;;;;5029932;28;20092;-56
2023/11/07 10:11:22;;;;;;;4.60;1.60;;;;;;;;;;5029894;28;20057;-56
2023/11/07 10:14:00;;;;;;;3.45;1.60;;;;;;;;;;5030144;28;20400;-56
2023/11/07 10:16:36;;;;;;;2.55;1.30;;;;;;;;;;5029996;28;20049;-57
2023/11/07 10:19:04;;;;;;;4.00;1.70;;;;;;;;;;5029967;28;20056;-57
2023/11/07 10:21:32;;;;;;;3.15;1.10;;;;;;;;;;5028340;28;20079;-56
2023/11/07 10:24:01;;;;;;;3.22;1.33;;;;;;;;;;5029556;28;20548;-54
2023/11/07 10:26:28;;;;;;;3.40;1.20;;;;;;;;;;5028800;28;20111;-58
2023/11/07 10:29:13;;;;;;;4.47;1.23;;;;;;;;;;5029280;28;20128;-55
2023/11/07 10:31:41;;;;;;;3.30;1.17;;;;;;;;;;5019350;28;20052;-58
2023/11/07 10:34:16;;;;;;;3.38;1.00;;;;;;;;;;5025533;28;20054;-57
2023/11/07 10:36:44;;;;;;;2.47;1.10;;;;;;;;;;5022045;28;20049;-55
2023/11/07 10:39:16;;;;;;;4.10;1.17;;;;;;;;;;5029205;28;20054;-57
2023/11/07 10:41:44;;;;;;;2.85;1.02;;;;;;;;;;5029215;28;20409;-58
2023/11/07 10:44:25;;;;;;;5.45;1.38;;;;;;;;;;5028871;28;20484;-58
2023/11/07 10:46:53;;;;;;;;;;;;;;;;;;5029223;28;20053;-57
2023/11/07 10:49:20;;;;;;;1.63;0.90;;;;;;;;;;5028972;28;19948;-58
2023/11/07 10:51:48;;;;;;;2.58;0.90;;;;;;;;;;5029203;28;20409;-56
2023/11/07 10:54:19;;;;;;;2.17;0.90;;;;;;;;;;5028835;28;20576;-56
2023/11/07 10:56:46;;;;;;;2.60;1.10;;;;;;;;;;5028749;28;20064;-57
2023/11/07 10:59:18;;;;;;;2.63;1.05;;;;;;;;;;5029159;28;20573;-57
2023/11/07 11:01:46;;;;;;;2.42;0.80;;;;;;;;;;5029260;28;20053;-59
2023/11/07 11:04:14;;;;;;;3.38;1.33;;;;;;;;;;5028987;28;20046;-57
2023/11/07 11:06:46;;;;;;;5.32;3.08;;;;;;;;;;5029058;28;20092;-56
2023/11/07 11:09:17;;;;;;;3.63;1.63;;;;;;;;;;5028761;28;20133;-56
2023/11/07 11:11:49;;;;;;;3.63;1.30;;;;;;;;;;5028838;28;20544;-59
2023/11/07 11:14:16;;;;;;;7.53;1.80;;;;;;;;;;5030479;28;20559;-58
2023/11/07 11:16:45;;;;;;;4.93;1.70;;;;;;;;;;5033055;28;20144;-57
2023/11/07 11:19:24;;;;;;;3.97;1.95;;;;;;;;;;5032927;28;20046;-57
2023/11/07 11:21:57;;;;;;;3.38;1.00;;;;;;;;;;5032491;28;20056;-57
2023/11/07 11:24:38;;;;;;;2.25;0.90;;;;;;;;;;5032676;28;20424;-58
2023/11/07 11:27:11;;;;;;;2.97;1.30;;;;;;;;;;5032837;28;20444;-55
2023/11/07 11:29:45;;;;;;;2.28;1.30;;;;;;;;;;5033212;28;20125;-58
2023/11/07 11:32:26;;;;;;;6.07;2.20;;;;;;;;;;5032325;28;20049;-55
2023/11/07 11:34:57;;;;;;;4.18;1.40;;;;;;;;;;5032504;28;20548;-57
2023/11/07 11:37:25;;;;;;;3.03;1.52;;;;;;;;;;5032288;28;20127;-58
2023/11/07 11:39:52;;;;;;;2.72;1.30;;;;;;;;;;5032023;28;20045;-58
2023/11/07 11:42:20;;;;;;;5.22;1.95;;;;;;;;;;5031790;28;20053;-56
2023/11/07 11:45:16;;;;;;;3.78;1.60;;;;;;;;;;5032024;28;20080;-58
2023/11/07 11:47:51;;;;;;;5.80;2.60;;;;;;;;;;5025154;28;20512;-56
2023/11/07 11:50:19;;;;;;;5.20;1.73;;;;;;;;;;5032685;28;20049;-58
2023/11/07 11:52:46;;;;;;;4.18;1.90;;;;;;;;;;5032292;28;20057;-58
2023/11/07 11:55:15;;;;;;;3.13;1.50;;;;;;;;;;5031973;28;20493;-57
2023/11/07 11:58:21;;;;;;;4.03;1.90;;;;;;;;;;5032705;28;20052;-57
2023/11/07 12:00:50;;;;;;;3.75;1.75;;;;;;;;;;5026164;28;20061;-55
2023/11/07 12:03:18;;;;;;;4.25;1.60;;;;;;;;;;5031907;28;20132;-57
2023/11/07 12:06:03;;;;;;;4.35;1.65;;;;;;;;;;5032668;28;20041;-58
2023/11/07 12:08:35;;;;;;;3.25;1.40;;;;;;;;;;5031448;28;20103;-58
2023/11/07 12:11:02;;;;;;;6.55;1.40;;;;;;;;;;5031018;28;20052;-57
2023/11/07 12:13:31;;;;;;;3.28;1.60;;;;;;;;;;5031848;28;20141;-58
2023/11/07 12:16:10;;;;;;;5.75;2.00;;;;;;;;;;5028909;28;20049;-55
2023/11/07 12:18:41;;;;;;;6.55;2.10;;;;;;;;;;5031050;28;20060;-63
2023/11/07 12:21:08;;;;;;;6.85;2.90;;;;;;;;;;5031389;28;20132;-62
2023/11/07 12:23:36;;;;;;;4.43;2.08;;;;;;;;;;5032119;28;20055;-57
2023/11/07 12:26:02;;;;;;;5.40;1.88;;;;;;;;;;5031818;28;20045;-56
2023/11/07 12:28:31;;;;;;;4.97;1.77;;;;;;;;;;5031709;28;20398;-60
2023/11/07 12:30:58;;;;;;;4.63;1.83;;;;;;;;;;5032016;28;20053;-58
2023/11/07 12:33:24;;;;;;;6.72;1.80;;;;;;;;;;5031411;28;20087;-57
2023/11/07 12:35:55;;;;;;;5.55;2.20;;;;;;;;;;5031828;28;20051;-57
2023/11/07 12:38:22;;;;;;;;;;;;;;;;;;5031947;28;20056;-56
2023/11/07 12:40:49;;;;;;;3.70;1.67;;;;;;;;;;5031408;28;19964;-55
2023/11/07 12:43:16;;;;;;;3.38;1.30;;;;;;;;;;5031289;28;20072;-57
2023/11/07 12:45:46;;;;;;;5.35;1.70;;;;;;;;;;5031291;28;20136;-55
2023/11/07 12:48:13;;;;;;;3.90;1.70;;;;;;;;;;5031903;28;20517;-58
2023/11/07 12:50:44;;;;;;;5.57;2.03;;;;;;;;;;5031860;28;20053;-55
2023/11/07 12:53:12;;;;;;;5.97;1.80;;;;;;;;;;5031234;28;20068;-55
2023/11/07 12:55:39;;;;;;;4.53;1.95;;;;;;;;;;5031409;28;20053;-58
2023/11/07 12:58:06;;;;;;;4.93;1.58;;;;;;;;;;5031410;28;20125;-58
2023/11/07 13:00:56;;;;;;;5.05;2.00;;;;;;;;;;5030915;28;20045;-59
2023/11/07 13:03:23;;;;;;;4.18;2.13;;;;;;;;;;5031285;28;20041;-58
2023/11/07 13:05:57;;;;;;;2.90;1.40;;;;;;;;;;5031197;28;20049;-58
2023/11/07 13:08:30;;;;;;;3.17;1.45;;;;;;;;;;5028206;28;20415;-58
2023/11/07 13:11:17;;;;;;;3.05;1.13;;;;;;;;;;5030729;28;20504;-57
2023/11/07 13:13:45;;;;;;;4.00;1.70;;;;;;;;;;5027876;28;20108;-56
2023/11/07 13:16:14;;;;;;;2.20;1.10;;;;;;;;;;5025000;28;20096;-56
2023/11/07 13:18:45;;;;;;;2.25;1.00;;;;;;;;;;5030526;28;20045;-58
2023/11/07 13:21:11;;;;;;;2.00;1.05;;;;;;;;;;5030792;28;20057;-58
2023/11/07 13:23:39;;;;;;;2.25;0.90;;;;;;;;;;5030571;28;20129;-57
2023/11/07 13:26:07;;;;;;;5.97;2.53;;;;;;;;;;5031176;28;20049;-57
2023/11/07 13:28:36;;;;;;;4.00;1.35;;;;;;;;;;5030565;28;20501;-57
2023/11/07 13:31:03;;;;;;;3.38;1.02;;;;;;;;;;5030621;28;20041;-57
2023/11/07 13:33:31;;;;;;;1.95;0.90;;;;;;;;;;5030516;28;20073;-58
2023/11/07 13:35:58;;;;;;;2.85;1.33;;;;;;;;;;5030549;28;20052;-58
2023/11/07 13:38:25;;;;;;;7.60;3.38;;;;;;;;;;5030103;28;20128;-54
2023/11/07 13:40:53;;;;;;;3.45;1.60;;;;;;;;;;5030640;28;20046;-54
2023/11/07 13:43:20;;;;;;;4.88;1.70;;;;;;;;;;5029958;28;20045;-57
2023/11/07 13:45:47;;;;;;;2.33;1.40;;;;;;;;;;5030025;28;20475;-56
2023/11/07 13:48:14;;;;;;;4.85;2.35;;;;;;;;;;5030184;28;20120;-58
2023/11/07 13:50:44;;;;;;;4.63;1.55;;;;;;;;;;5029816;28;20087;-58
2023/11/07 13:53:11;;;;;;;5.70;1.90;;;;;;;;;;5029792;28;20050;-59
2023/11/07 13:55:37;;;;;;;2.20;1.45;;;;;;;;;;5027376;28;20041;-57
2023/11/07 13:58:04;;;;;;;3.58;1.40;;;;;;;;;;5026867;28;20042;-58
2023/11/07 14:00:31;;;;;;;4.80;1.60;;;;;;;;;;5029833;28;20049;-58
2023/11/07 14:02:58;;;;;;;4.32;1.33;;;;;;;;;;5029552;28;20084;-59
2023/11/07 14:05:25;;;;;;;3.80;1.40;;;;;;;;;;5029873;28;20049;-57
2023/11/07 14:07:53;;;;;;;3.00;1.30;;;;;;;;;;5028600;28;20049;-57
2023/11/07 14:10:21;;;;;;;3.63;1.25;;;;;;;;;;5030188;28;20053;-54
2023/11/07 14:12:51;;;;;;;4.13;1.63;;;;;;;;;;5029193;28;20042;-58
2023/11/07 14:15:19;;;;;;;3.65;1.20;;;;;;;;;;5029747;28;20064;-58
2023/11/07 14:17:46;;;;;;;5.45;1.30;;;;;;;;;;5026896;28;20129;-57
2023/11/07 14:20:15;;;;;;;3.67;1.40;;;;;;;;;;5029268;28;20124;-55
2023/11/07 14:22:42;;;;;;;2.90;1.50;;;;;;;;;;5030181;28;20103;-56
2023/11/07 14:25:12;;;;;;;4.43;1.63;;;;;;;;;;5029674;28;20072;-55
2023/11/07 14:27:39;;;;;;;3.93;1.33;;;;;;;;;;5029734;28;20046;-56
2023/11/07 14:30:08;;;;;;;3.33;1.08;;;;;;;;;;5029506;28;20537;-63
2023/11/07 14:32:35;;;;;;;3.70;1.27;;;;;;;;;;5029827;28;20050;-58
2023/11/07 14:35:08;;;;;;;2.33;1.30;;;;;;;;;;5029789;28;20497;-57
2023/11/07 14:37:34;;;;;;;2.95;0.90;;;;;;;;;;5030065;28;20657;-56
2023/11/07 14:40:01;;;;;;;3.25;1.20;;;;;;;;;;5029952;28;20045;-59
2023/11/07 14:42:32;;;;;;;1.63;0.90;;;;;;;;;;5029791;28;20053;-59
2023/11/07 14:45:00;;;;;;;4.50;1.40;;;;;;;;;;5029088;28;20045;-58
2023/11/07 14:47:27;;;;;;;2.38;0.80;;;;;;;;;;5029650;28;20622;-57
2023/11/07 14:49:54;;;;;;;2.53;1.00;;;;;;;;;;5033582;28;20056;-59